Time;durP1;ratioP1;P1;durP2;ratioP2;P2;SDS_P1;SDS_P2;PMS_P1;PMS_P2;Temp;Humidity;BMP_temperature;BMP_pressure;BME280_temperature;BME280_humidity;BME280_pressure;Samples;Min_cycle;Max_cycle;Signal;HPM_P1;HPM_P2
2022/10/25 00:01:27;;;;;;;22.55;16.38;;;12.80;99.90;;;;;;7367427;19;20018;-49
2022/10/25 00:03:54;;;;;;;23.13;16.25;;;12.80;99.90;;;;;;7366302;19;20026;-47
2022/10/25 00:06:21;;;;;;;26.40;18.00;;;12.70;99.90;;;;;;7372061;19;20018;-49
2022/10/25 00:08:48;;;;;;;28.08;19.15;;;12.70;99.90;;;;;;7375239;19;20022;-46
2022/10/25 00:11:24;;;;;;;27.08;19.55;;;12.70;99.90;;;;;;7374921;19;21074;-51
2022/10/25 00:13:52;;;;;;;33.88;18.60;;;12.60;99.90;;;;;;7372593;19;20015;-50
2022/10/25 00:16:21;;;;;;;26.27;18.83;;;12.60;99.90;;;;;;7371671;19;20029;-50
2022/10/25 00:18:48;;;;;;;27.92;20.08;;;12.60;99.90;;;;;;7375340;19;20774;-50
2022/10/25 00:21:14;;;;;;;28.95;20.38;;;12.60;99.90;;;;;;7371588;19;20030;-46
2022/10/25 00:23:40;;;;;;;26.48;19.20;;;12.60;99.90;;;;;;7375827;19;22254;-47
2022/10/25 00:26:08;;;;;;;29.95;19.27;;;12.70;99.90;;;;;;7370976;19;20022;-48
2022/10/25 00:28:34;;;;;;;28.75;19.05;;;12.70;99.90;;;;;;7376714;19;20108;-50
2022/10/25 00:31:07;;;;;;;23.60;17.83;;;12.70;99.90;;;;;;7375503;19;20018;-47
2022/10/25 00:33:34;;;;;;;29.25;19.15;;;12.70;99.90;;;;;;7378042;19;20032;-50
2022/10/25 00:36:12;;;;;;;24.83;17.73;;;12.70;99.90;;;;;;7372064;19;20025;-47
2022/10/25 00:38:39;;;;;;;29.48;18.75;;;12.60;99.90;;;;;;7374206;19;20034;-49
2022/10/25 00:41:06;;;;;;;26.65;18.88;;;12.60;99.90;;;;;;7373823;19;20019;-51
2022/10/25 00:43:47;;;;;;;24.38;18.33;;;12.60;99.90;;;;;;7374980;19;20014;-50
2022/10/25 00:46:22;;;;;;;29.92;18.52;;;12.60;99.90;;;;;;7373044;19;20393;-49
2022/10/25 00:49:01;;;;;;;26.70;18.35;;;12.60;99.90;;;;;;7374527;19;21117;-50
2022/10/25 00:51:37;;;;;;;25.33;17.90;;;12.60;99.90;;;;;;7373739;19;20090;-48
2022/10/25 00:54:05;;;;;;;22.90;17.48;;;12.70;99.90;;;;;;7373374;19;20027;-50
2022/10/25 00:56:36;;;;;;;21.98;16.00;;;12.60;99.90;;;;;;7372862;19;20022;-51
2022/10/25 00:59:07;;;;;;;25.42;15.93;;;12.70;99.90;;;;;;7372938;19;20474;-59
2022/10/25 01:01:34;;;;;;;24.23;17.15;;;12.70;99.90;;;;;;7382574;19;20015;-59
2022/10/25 01:04:04;;;;;;;24.52;16.30;;;12.70;99.90;;;;;;7371839;19;20067;-49
2022/10/25 01:06:38;;;;;;;24.15;15.45;;;12.70;99.90;;;;;;7373810;19;20363;-47
2022/10/25 01:09:07;;;;;;;24.30;16.00;;;12.80;99.90;;;;;;7374313;19;20046;-47
2022/10/25 01:11:36;;;;;;;20.92;15.65;;;12.80;99.90;;;;;;7370377;19;20019;-51
2022/10/25 01:14:07;;;;;;;20.45;15.10;;;12.80;99.90;;;;;;7373876;19;20019;-52
2022/10/25 01:16:42;;;;;;;22.92;15.65;;;12.80;99.90;;;;;;7371164;19;20025;-51
2022/10/25 01:19:27;;;;;;;25.35;15.48;;;12.80;99.90;;;;;;7372285;19;20025;-48
2022/10/25 01:22:07;;;;;;;20.52;15.30;;;12.80;99.90;;;;;;7372954;19;20018;-52
2022/10/25 01:24:45;;;;;;;19.23;15.20;;;12.80;99.90;;;;;;7376964;19;20490;-52
2022/10/25 01:27:23;;;;;;;20.88;14.60;;;12.80;99.90;;;;;;7381952;19;20386;-50
2022/10/25 01:29:58;;;;;;;22.25;15.57;;;12.80;99.90;;;;;;7389970;19;20027;-60
2022/10/25 01:32:48;;;;;;;21.77;15.13;;;12.80;99.90;;;;;;7386128;19;20550;-51
2022/10/25 01:35:24;;;;;;;21.25;15.32;;;12.70;99.90;;;;;;7381506;19;20078;-51
2022/10/25 01:38:04;;;;;;;22.77;14.63;;;12.70;99.90;;;;;;7384286;19;20706;-60
2022/10/25 01:40:40;;;;;;;22.60;14.77;;;12.70;99.90;;;;;;7374565;19;20036;-51
2022/10/25 01:43:25;;;;;;;22.58;14.73;;;12.70;99.90;;;;;;7387869;19;20130;-60
2022/10/25 01:45:56;;;;;;;17.75;13.95;;;12.70;99.90;;;;;;7391475;19;20014;-60
2022/10/25 01:48:28;;;;;;;20.58;14.68;;;12.70;99.90;;;;;;7389421;19;20473;-60
2022/10/25 01:51:06;;;;;;;23.42;13.48;;;12.70;99.90;;;;;;7387631;19;20021;-61
2022/10/25 01:53:32;;;;;;;19.10;13.68;;;12.70;99.90;;;;;;7381394;19;20956;-49
2022/10/25 01:56:01;;;;;;;21.02;13.45;;;12.80;99.90;;;;;;7388822;19;20580;-60
2022/10/25 01:58:36;;;;;;;17.13;12.32;;;12.80;99.90;;;;;;7387156;19;20047;-60
2022/10/25 02:01:29;;;;;;;20.10;12.35;;;12.80;99.90;;;;;;7385000;19;20574;-61
2022/10/25 02:04:19;;;;;;;17.83;13.13;;;12.80;99.90;;;;;;7388619;19;20014;-61
2022/10/25 02:07:32;;;;;;;18.90;12.43;;;12.80;99.90;;;;;;7388643;19;20029;-61
2022/10/25 02:10:13;;;;;;;16.95;12.30;;;12.80;99.90;;;;;;7382980;19;20036;-60
2022/10/25 02:12:57;;;;;;;18.83;11.35;;;12.80;99.90;;;;;;7386877;19;20022;-60
2022/10/25 02:15:32;;;;;;;19.10;12.15;;;12.80;99.90;;;;;;7389839;19;20474;-61
2022/10/25 02:18:02;;;;;;;15.32;11.43;;;12.90;99.90;;;;;;7388007;19;20742;-60
2022/10/25 02:20:32;;;;;;;18.30;11.98;;;12.90;99.90;;;;;;7387013;19;20597;-60
2022/10/25 02:23:05;;;;;;;18.70;12.05;;;12.90;99.90;;;;;;7385884;19;20028;-61
2022/10/25 02:25:33;;;;;;;16.55;11.85;;;12.90;99.90;;;;;;7386889;19;20015;-60
2022/10/25 02:28:05;;;;;;;18.27;12.85;;;12.90;99.90;;;;;;7387100;19;20872;-61
2022/10/25 02:30:32;;;;;;;17.48;12.10;;;12.90;99.90;;;;;;7388129;19;20025;-61
2022/10/25 02:32:58;;;;;;;20.30;12.20;;;12.90;99.90;;;;;;7383504;19;20025;-60
2022/10/25 02:35:24;;;;;;;21.85;12.35;;;12.90;99.90;;;;;;7386640;19;20010;-61
2022/10/25 02:37:51;;;;;;;23.92;13.38;;;12.90;99.90;;;;;;7390162;19;20022;-60
2022/10/25 02:40:18;;;;;;;18.33;12.90;;;12.90;99.90;;;;;;7384855;19;20079;-59
2022/10/25 02:42:44;;;;;;;19.10;12.45;;;12.90;99.90;;;;;;7390121;19;20019;-60
2022/10/25 02:45:10;;;;;;;18.88;11.75;;;12.90;99.90;;;;;;7388339;19;20022;-60
2022/10/25 02:47:37;;;;;;;18.02;12.55;;;12.90;99.90;;;;;;7389700;19;20026;-60
2022/10/25 02:50:03;;;;;;;19.35;12.73;;;12.90;99.90;;;;;;7389919;19;20055;-59
2022/10/25 02:52:30;;;;;;;22.25;13.90;;;13.00;99.90;;;;;;7389163;19;20022;-60
2022/10/25 02:54:57;;;;;;;21.02;13.00;;;13.00;99.90;;;;;;7387377;19;20036;-60
2022/10/25 02:57:23;;;;;;;20.58;14.38;;;13.00;99.90;;;;;;7389230;19;20022;-59
2022/10/25 02:59:49;;;;;;;21.38;14.75;;;13.10;99.90;;;;;;7388669;19;20034;-59
2022/10/25 03:02:15;;;;;;;19.80;14.25;;;13.10;99.90;;;;;;7386438;19;20022;-60
2022/10/25 03:04:41;;;;;;;19.95;14.05;;;13.20;99.90;;;;;;7387486;19;20478;-60
2022/10/25 03:07:07;;;;;;;21.25;14.05;;;13.20;99.90;;;;;;7387256;19;20522;-60
2022/10/25 03:09:34;;;;;;;21.98;13.55;;;13.30;99.90;;;;;;7387449;19;20025;-59
2022/10/25 03:12:00;;;;;;;18.70;14.05;;;13.30;99.90;;;;;;7381824;19;20117;-60
2022/10/25 03:14:26;;;;;;;20.50;13.18;;;13.30;99.90;;;;;;7383663;19;20025;-61
2022/10/25 03:16:52;;;;;;;20.88;13.57;;;13.30;99.90;;;;;;7383967;19;20033;-60
2022/10/25 03:19:18;;;;;;;21.85;13.05;;;13.30;99.90;;;;;;7384506;19;20561;-58
2022/10/25 03:21:44;;;;;;;18.50;13.50;;;13.30;99.90;;;;;;7386998;19;20026;-59
2022/10/25 03:24:11;;;;;;;18.38;12.30;;;13.30;99.90;;;;;;7385348;19;20494;-59
2022/10/25 03:26:37;;;;;;;17.70;12.20;;;13.30;99.90;;;;;;7385581;19;20015;-58
2022/10/25 03:29:03;;;;;;;18.98;12.95;;;13.30;99.90;;;;;;7385459;19;20022;-59
2022/10/25 03:31:29;;;;;;;19.23;13.43;;;13.30;99.90;;;;;;7384349;19;20490;-56
2022/10/25 03:33:55;;;;;;;21.90;13.00;;;13.30;99.90;;;;;;7376756;19;20018;-47
2022/10/25 03:36:21;;;;;;;18.35;12.95;;;13.30;99.90;;;;;;7376538;19;20808;-48
2022/10/25 03:38:48;;;;;;;18.10;12.82;;;13.20;99.90;;;;;;7379004;19;20018;-48
2022/10/25 03:41:14;;;;;;;20.83;13.10;;;13.20;99.90;;;;;;7373055;19;20018;-46
2022/10/25 03:43:40;;;;;;;17.25;12.48;;;13.10;99.90;;;;;;7373491;19;20018;-46
2022/10/25 03:46:06;;;;;;;21.70;14.07;;;13.10;99.90;;;;;;7374752;19;20484;-48
2022/10/25 03:48:33;;;;;;;22.35;14.10;;;13.00;99.90;;;;;;7374514;19;20022;-48
2022/10/25 03:50:59;;;;;;;20.70;14.07;;;12.90;99.90;;;;;;7377204;19;20035;-47
2022/10/25 03:53:26;;;;;;;23.75;13.43;;;13.00;99.90;;;;;;7373816;19;20022;-50
2022/10/25 03:55:52;;;;;;;18.98;13.65;;;12.90;99.90;;;;;;7379552;19;20529;-59
2022/10/25 03:58:18;;;;;;;23.85;13.93;;;12.90;99.90;;;;;;7379735;19;20402;-57
2022/10/25 04:00:44;;;;;;;17.30;13.40;;;13.00;99.90;;;;;;7379881;19;20762;-59
2022/10/25 04:03:11;;;;;;;20.00;15.07;;;13.00;99.90;;;;;;7381471;19;20019;-59
2022/10/25 04:05:37;;;;;;;17.55;13.85;;;13.00;99.90;;;;;;7384057;19;20551;-59
2022/10/25 04:08:04;;;;;;;22.38;13.88;;;13.10;99.90;;;;;;7385451;19;20018;-59
2022/10/25 04:10:30;;;;;;;24.13;14.98;;;13.10;99.90;;;;;;7380791;19;20127;-59
2022/10/25 04:12:56;;;;;;;26.00;14.80;;;13.10;99.90;;;;;;7378389;19;20018;-59
2022/10/25 04:15:23;;;;;;;23.88;14.20;;;13.10;99.90;;;;;;7381351;19;20095;-59
2022/10/25 04:17:50;;;;;;;25.73;15.73;;;13.00;99.90;;;;;;7376974;19;20033;-59
2022/10/25 04:20:18;;;;;;;20.55;14.50;;;13.10;99.90;;;;;;7376909;19;20414;-59
2022/10/25 04:22:44;;;;;;;24.55;14.85;;;13.10;99.90;;;;;;7380093;19;20011;-59
2022/10/25 04:25:11;;;;;;;22.95;14.85;;;13.10;99.90;;;;;;7378343;19;20048;-59
2022/10/25 04:27:37;;;;;;;20.55;13.95;;;13.10;99.90;;;;;;7377266;19;20635;-59
2022/10/25 04:30:04;;;;;;;24.73;14.95;;;13.10;99.90;;;;;;7372773;19;20018;-59
2022/10/25 04:32:30;;;;;;;22.13;14.48;;;13.10;99.90;;;;;;7370558;19;20026;-59
2022/10/25 04:34:56;;;;;;;20.38;14.30;;;13.10;99.90;;;;;;7372931;19;20030;-59
2022/10/25 04:37:22;;;;;;;22.48;15.35;;;13.10;99.90;;;;;;7376915;19;20036;-58
2022/10/25 04:39:48;;;;;;;27.13;14.55;;;13.20;99.90;;;;;;7377801;19;20035;-58
2022/10/25 04:42:16;;;;;;;25.48;14.82;;;13.20;99.90;;;;;;7379169;19;20619;-58
2022/10/25 04:44:42;;;;;;;28.13;14.80;;;13.20;99.90;;;;;;7376835;19;20015;-58
2022/10/25 04:47:08;;;;;;;23.02;15.05;;;13.20;99.90;;;;;;7377597;19;20022;-50
2022/10/25 04:49:35;;;;;;;24.10;14.38;;;13.20;99.90;;;;;;7372279;19;20889;-47
2022/10/25 04:52:01;;;;;;;19.98;13.80;;;13.20;99.90;;;;;;7372406;19;20348;-50
2022/10/25 04:54:28;;;;;;;27.48;15.48;;;13.20;99.90;;;;;;7372826;19;20647;-46
2022/10/25 04:56:54;;;;;;;24.00;13.15;;;13.20;99.90;;;;;;7373559;19;20019;-50
2022/10/25 04:59:20;;;;;;;20.63;14.05;;;13.20;99.90;;;;;;7375783;19;20022;-58
2022/10/25 05:01:47;;;;;;;21.85;13.43;;;13.20;99.90;;;;;;7385517;19;20022;-57
2022/10/25 05:04:13;;;;;;;23.48;13.43;;;13.20;99.90;;;;;;7379743;19;20089;-48
2022/10/25 05:06:39;;;;;;;24.20;13.50;;;13.10;99.90;;;;;;7378391;19;20035;-51
2022/10/25 05:09:05;;;;;;;23.77;14.13;;;13.00;99.90;;;;;;7383287;19;20562;-52
2022/10/25 05:11:32;;;;;;;20.67;13.25;;;13.00;99.90;;;;;;7376933;19;20083;-51
2022/10/25 05:13:58;;;;;;;23.00;13.02;;;12.90;99.90;;;;;;7379119;19;20589;-47
2022/10/25 05:16:25;;;;;;;18.08;12.50;;;12.80;99.90;;;;;;7381804;19;20026;-57
2022/10/25 05:18:53;;;;;;;18.35;12.30;;;12.80;99.90;;;;;;7380346;19;20113;-48
2022/10/25 05:21:21;;;;;;;22.38;11.90;;;12.70;99.90;;;;;;7376800;19;20025;-49
2022/10/25 05:23:47;;;;;;;14.05;11.20;;;12.70;99.90;;;;;;7381632;19;20501;-58
2022/10/25 05:26:16;;;;;;;18.13;11.65;;;12.60;99.90;;;;;;7385516;19;20060;-58
2022/10/25 05:28:44;;;;;;;19.77;12.45;;;12.60;99.90;;;;;;7383561;19;20021;-58
2022/10/25 05:31:20;;;;;;;23.27;11.80;;;12.50;99.90;;;;;;7383912;19;20074;-58
2022/10/25 05:33:49;;;;;;;17.35;11.27;;;12.50;99.90;;;;;;7383042;19;20034;-58
2022/10/25 05:36:16;;;;;;;19.85;12.65;;;12.50;99.90;;;;;;7380292;19;20018;-58
2022/10/25 05:38:42;;;;;;;21.33;12.68;;;12.50;99.90;;;;;;7381143;19;20023;-58
2022/10/25 05:41:11;;;;;;;18.42;12.13;;;12.50;99.90;;;;;;7379109;19;20017;-58
2022/10/25 05:43:37;;;;;;;21.75;12.35;;;12.50;99.90;;;;;;7380819;19;20099;-58
2022/10/25 05:46:11;;;;;;;19.52;12.02;;;12.60;99.90;;;;;;7376376;19;20598;-50
2022/10/25 05:48:39;;;;;;;19.65;11.10;;;12.60;99.90;;;;;;7377528;19;20028;-48
2022/10/25 05:51:19;;;;;;;19.13;12.68;;;12.70;99.90;;;;;;7376730;19;20027;-50
2022/10/25 05:53:50;;;;;;;24.85;13.18;;;12.70;99.90;;;;;;7381424;19;20033;-48
2022/10/25 05:56:19;;;;;;;17.98;11.52;;;12.70;99.90;;;;;;7378231;19;20029;-48
2022/10/25 05:58:45;;;;;;;17.38;11.82;;;12.70;99.90;;;;;;7379714;19;20010;-47
2022/10/25 06:01:14;;;;;;;23.35;10.82;;;12.60;99.90;;;;;;7376418;19;20010;-48
2022/10/25 06:03:41;;;;;;;18.40;12.23;;;12.60;99.90;;;;;;7380158;19;20019;-48
2022/10/25 06:06:10;;;;;;;22.75;12.48;;;12.60;99.90;;;;;;7377935;19;20018;-50
2022/10/25 06:08:37;;;;;;;19.30;11.95;;;12.50;99.90;;;;;;7376710;19;21051;-46
2022/10/25 06:11:06;;;;;;;19.00;11.43;;;12.50;99.90;;;;;;7374042;19;20018;-49
2022/10/25 06:13:33;;;;;;;20.98;12.38;;;12.50;99.90;;;;;;7376599;19;20019;-52
2022/10/25 06:16:03;;;;;;;23.48;12.93;;;12.50;99.90;;;;;;7378406;19;20042;-48
2022/10/25 06:18:34;;;;;;;22.40;12.45;;;12.50;99.90;;;;;;7381322;19;20019;-59
2022/10/25 06:21:09;;;;;;;24.17;12.05;;;12.50;99.90;;;;;;7379653;19;20022;-59
2022/10/25 06:23:36;;;;;;;22.55;12.23;;;12.60;99.90;;;;;;7378833;19;20041;-59
2022/10/25 06:26:08;;;;;;;21.00;12.18;;;12.60;99.90;;;;;;7384532;19;20035;-59
2022/10/25 06:28:35;;;;;;;19.08;11.98;;;12.60;99.90;;;;;;7380320;19;20013;-59
2022/10/25 06:31:03;;;;;;;20.60;11.45;;;12.50;99.90;;;;;;7382978;19;20018;-59
2022/10/25 06:33:30;;;;;;;22.35;12.20;;;12.60;99.90;;;;;;7378937;19;20027;-60
2022/10/25 06:35:58;;;;;;;19.05;11.20;;;12.60;99.90;;;;;;7381462;19;20117;-60
2022/10/25 06:38:26;;;;;;;26.40;12.07;;;12.60;99.90;;;;;;7379744;19;20017;-59
2022/10/25 06:41:01;;;;;;;24.15;13.05;;;12.60;99.90;;;;;;7375678;19;20030;-50
2022/10/25 06:43:29;;;;;;;20.77;11.35;;;12.70;99.90;;;;;;7371680;19;20022;-50
2022/10/25 06:45:55;;;;;;;22.67;11.90;;;12.70;99.90;;;;;;7377762;19;20036;-49
2022/10/25 06:48:22;;;;;;;18.80;11.98;;;12.80;99.90;;;;;;7373547;19;20022;-46
2022/10/25 06:50:59;;;;;;;19.90;11.65;;;12.80;99.90;;;;;;7374389;19;20018;-52
2022/10/25 06:53:25;;;;;;;22.95;11.38;;;12.80;99.90;;;;;;7374660;19;20028;-50
2022/10/25 06:55:52;;;;;;;20.42;12.35;;;12.80;99.90;;;;;;7375022;19;20021;-47
2022/10/25 06:58:19;;;;;;;22.73;11.40;;;12.70;99.90;;;;;;7373441;19;20023;-51
2022/10/25 07:00:45;;;;;;;22.50;11.40;;;12.70;99.90;;;;;;7372944;19;20034;-49
2022/10/25 07:03:12;;;;;;;27.38;11.43;;;12.80;99.90;;;;;;7375701;19;20044;-48
2022/10/25 07:05:38;;;;;;;25.17;12.35;;;12.80;99.90;;;;;;7372109;19;20018;-50
2022/10/25 07:08:04;;;;;;;21.80;11.02;;;12.90;99.90;;;;;;7375788;19;20536;-50
2022/10/25 07:10:31;;;;;;;24.23;12.07;;;12.90;99.90;;;;;;7376726;19;20018;-49
2022/10/25 07:12:57;;;;;;;23.67;11.05;;;12.90;99.90;;;;;;7374834;19;20769;-47
2022/10/25 07:15:24;;;;;;;22.02;10.43;;;13.00;99.90;;;;;;7375556;19;20024;-48
2022/10/25 07:17:53;;;;;;;22.25;10.95;;;13.10;99.90;;;;;;7375731;19;20061;-48
2022/10/25 07:20:19;;;;;;;16.15;10.93;;;13.20;99.90;;;;;;7373771;19;20025;-50
2022/10/25 07:22:46;;;;;;;26.75;11.75;;;13.20;99.90;;;;;;7372676;19;20010;-50
2022/10/25 07:25:13;;;;;;;21.77;11.55;;;13.20;99.90;;;;;;7374268;19;20577;-60
2022/10/25 07:27:39;;;;;;;22.77;10.57;;;13.20;99.90;;;;;;7371621;19;20025;-51
2022/10/25 07:30:06;;;;;;;22.65;12.18;;;13.20;99.90;;;;;;7373008;19;20028;-48
2022/10/25 07:32:32;;;;;;;21.58;11.10;;;13.30;99.90;;;;;;7375868;19;21035;-51
2022/10/25 07:34:59;;;;;;;21.23;11.77;;;13.30;99.90;;;;;;7374615;19;20110;-49
2022/10/25 07:37:25;;;;;;;22.80;11.98;;;13.30;99.90;;;;;;7375823;19;20022;-47
2022/10/25 07:39:51;;;;;;;21.55;11.38;;;13.30;99.90;;;;;;7375311;19;20018;-50
2022/10/25 07:42:18;;;;;;;26.17;10.98;;;13.40;99.90;;;;;;7373744;19;20022;-47
2022/10/25 07:44:47;;;;;;;21.10;11.82;;;13.40;99.90;;;;;;7374825;19;20018;-47
2022/10/25 07:47:13;;;;;;;20.55;11.10;;;13.40;99.90;;;;;;7374904;19;20022;-60
2022/10/25 07:49:40;;;;;;;22.65;12.02;;;13.40;99.90;;;;;;7375184;19;20039;-60
2022/10/25 07:52:07;;;;;;;19.55;11.52;;;13.50;99.90;;;;;;7371607;19;20147;-60
2022/10/25 07:54:33;;;;;;;21.58;12.50;;;13.50;99.90;;;;;;7373046;19;20035;-49
2022/10/25 07:57:00;;;;;;;19.52;12.00;;;13.50;99.90;;;;;;7372914;19;20018;-50
2022/10/25 07:59:27;;;;;;;21.48;12.40;;;13.60;99.90;;;;;;7370960;19;20026;-48
2022/10/25 08:01:56;;;;;;;18.98;11.80;;;13.60;99.90;;;;;;7370549;19;20032;-50
2022/10/25 08:04:23;;;;;;;19.33;12.35;;;13.70;99.90;;;;;;7374446;19;20035;-50
2022/10/25 08:06:49;;;;;;;24.30;13.60;;;13.80;99.90;;;;;;7372050;19;20018;-48
2022/10/25 08:09:15;;;;;;;21.65;11.85;;;13.90;99.90;;;;;;7376272;19;20010;-48
2022/10/25 08:11:42;;;;;;;21.20;11.45;;;13.80;99.90;;;;;;7370489;19;20086;-51
2022/10/25 08:14:08;;;;;;;19.90;13.23;;;13.90;99.90;;;;;;7375022;19;20026;-51
2022/10/25 08:16:35;;;;;;;20.45;11.15;;;13.80;99.90;;;;;;7371015;19;20014;-48
2022/10/25 08:19:01;;;;;;;21.58;12.10;;;13.80;99.90;;;;;;7370711;19;20018;-50
2022/10/25 08:21:28;;;;;;;26.65;12.48;;;13.80;99.90;;;;;;7368769;19;20018;-49
2022/10/25 08:23:54;;;;;;;21.58;12.00;;;13.90;99.90;;;;;;7371973;19;20023;-48
2022/10/25 08:26:23;;;;;;;18.73;11.45;;;14.00;99.90;;;;;;7372566;19;20477;-60
2022/10/25 08:28:50;;;;;;;20.08;12.50;;;14.00;99.90;;;;;;7371886;19;20402;-50
2022/10/25 08:31:16;;;;;;;19.50;12.13;;;14.00;99.90;;;;;;7373714;19;20018;-48
2022/10/25 08:33:43;;;;;;;18.95;11.80;;;14.00;99.90;;;;;;7364668;19;20086;-59
2022/10/25 08:36:09;;;;;;;19.88;12.13;;;14.00;99.90;;;;;;7373142;19;20014;-51
2022/10/25 08:38:36;;;;;;;18.27;11.57;;;14.00;99.90;;;;;;7370836;19;20019;-52
2022/10/25 08:41:10;;;;;;;21.20;11.75;;;14.10;99.90;;;;;;7370025;19;20036;-47
2022/10/25 08:43:55;;;;;;;16.42;10.68;;;14.30;99.90;;;;;;7369707;19;20068;-49
2022/10/25 08:46:37;;;;;;;21.00;12.00;;;14.40;99.90;;;;;;7371517;19;20018;-60
2022/10/25 08:49:15;;;;;;;15.88;9.77;;;14.60;99.90;;;;;;7369946;19;20126;-60
2022/10/25 08:51:46;;;;;;;15.25;10.10;;;15.10;99.90;;;;;;7373133;19;20351;-59
2022/10/25 08:54:40;;;;;;;11.93;9.13;;;15.50;99.90;;;;;;7372749;19;20355;-59
2022/10/25 08:57:12;;;;;;;15.73;9.50;;;15.60;99.90;;;;;;7371762;19;20014;-59
2022/10/25 08:59:41;;;;;;;15.52;9.30;;;15.60;99.90;;;;;;7372514;19;20018;-60
2022/10/25 09:02:40;;;;;;;14.82;8.07;;;15.60;99.90;;;;;;7371765;19;20052;-59
2022/10/25 09:05:41;;;;;;;15.70;8.68;;;15.50;99.90;;;;;;7371603;19;20018;-58
2022/10/25 09:08:25;;;;;;;12.82;8.88;;;15.90;99.90;;;;;;7371697;19;20015;-46
2022/10/25 09:11:17;;;;;;;14.32;7.57;;;15.90;99.90;;;;;;7370484;19;20021;-47
2022/10/25 09:13:50;;;;;;;;;;;15.80;99.90;;;;;;7371649;19;20015;-57
2022/10/25 09:16:20;;;;;;;18.80;7.63;;;15.90;99.90;;;;;;7372833;19;19915;-56
2022/10/25 09:18:56;;;;;;;11.05;6.80;;;16.40;99.90;;;;;;7369342;19;20026;-58
2022/10/25 09:21:47;;;;;;;13.02;6.30;;;16.30;99.90;;;;;;7365345;19;20023;-57
2022/10/25 09:24:23;;;;;;;12.73;6.60;;;16.30;99.90;;;;;;7368207;19;20910;-58
2022/10/25 09:27:13;;;;;;;12.32;6.22;;;16.20;99.90;;;;;;7372152;19;20287;-57
2022/10/25 09:29:48;;;;;;;11.13;5.65;;;16.00;99.90;;;;;;7370313;19;20846;-58
2022/10/25 09:32:35;;;;;;;10.77;5.53;;;15.90;99.90;;;;;;7369807;19;20061;-57
2022/10/25 09:35:04;;;;;;;11.65;5.40;;;15.90;99.90;;;;;;7371595;19;20035;-58
2022/10/25 09:38:12;;;;;;;9.90;4.78;;;15.90;99.90;;;;;;7370130;19;20029;-57
2022/10/25 09:41:00;;;;;;;13.18;5.53;;;16.00;99.90;;;;;;7365254;19;20034;-58
2022/10/25 09:43:36;;;;;;;13.82;5.22;;;16.10;99.90;;;;;;7366466;19;20019;-57
2022/10/25 09:46:12;;;;;;;7.55;4.63;;;15.90;99.90;;;;;;7375604;19;20014;-48
2022/10/25 09:49:01;;;;;;;9.27;4.55;;;15.80;99.90;;;;;;7374343;19;20018;-49
2022/10/25 09:51:45;;;;;;;10.38;5.07;;;15.90;99.90;;;;;;7377139;19;20010;-49
2022/10/25 09:54:23;;;;;;;9.65;4.45;;;15.80;99.90;;;;;;7374292;19;20022;-49
2022/10/25 09:56:51;;;;;;;9.75;4.45;;;16.30;99.90;;;;;;7375827;19;20022;-48
2022/10/25 09:59:17;;;;;;;9.02;4.45;;;16.70;99.90;;;;;;7369867;19;20031;-52
2022/10/25 10:01:47;;;;;;;11.00;4.88;;;16.90;99.90;;;;;;7375283;19;20120;-51
2022/10/25 10:04:37;;;;;;;13.55;3.83;;;17.00;99.90;;;;;;7378432;19;20026;-48
2022/10/25 10:07:28;;;;;;;8.45;3.50;;;17.40;99.90;;;;;;7380190;19;20753;-52
2022/10/25 10:09:59;;;;;;;9.63;4.03;;;17.70;99.90;;;;;;7374168;19;20074;-52
2022/10/25 10:12:40;;;;;;;8.67;3.60;;;17.90;99.90;;;;;;7375272;19;20026;-51
2022/10/25 10:15:33;;;;;;;7.78;3.90;;;18.00;99.90;;;;;;7378425;19;20626;-50
2022/10/25 10:18:18;;;;;;;8.18;3.55;;;18.40;99.90;;;;;;7376499;19;20041;-53
2022/10/25 10:21:20;;;;;;;10.13;4.25;;;19.10;99.90;;;;;;7373886;19;20482;-49
2022/10/25 10:24:14;;;;;;;7.07;3.15;;;19.70;99.90;;;;;;7373409;19;20378;-48
2022/10/25 10:26:56;;;;;;;5.68;2.80;;;19.40;99.90;;;;;;7377686;19;20014;-47
2022/10/25 10:29:25;;;;;;;8.68;3.47;;;19.40;99.90;;;;;;7375187;19;20760;-46
2022/10/25 10:31:58;;;;;;;10.15;3.80;;;19.10;99.90;;;;;;7375836;19;20806;-49
2022/10/25 10:34:37;;;;;;;7.88;3.15;;;18.60;99.90;;;;;;7372508;19;20054;-51
2022/10/25 10:37:15;;;;;;;6.45;3.70;;;18.70;99.90;;;;;;7377777;19;20676;-57
2022/10/25 10:39:50;;;;;;;8.73;3.83;;;18.50;99.90;;;;;;7378976;19;20802;-57
2022/10/25 10:42:22;;;;;;;7.90;3.10;;;18.00;99.90;;;;;;7381110;19;20015;-54
2022/10/25 10:45:06;;;;;;;10.95;3.70;;;17.60;99.90;;;;;;7379207;19;20018;-57
2022/10/25 10:47:55;;;;;;;9.48;4.07;;;17.30;99.90;;;;;;7379150;19;20022;-56
2022/10/25 10:50:21;;;;;;;9.63;3.45;;;17.00;99.90;;;;;;7375265;19;20474;-56
2022/10/25 10:53:07;;;;;;;7.70;3.08;;;17.10;99.90;;;;;;7378460;19;20600;-57
2022/10/25 10:55:38;;;;;;;7.90;3.40;;;17.20;99.90;;;;;;7375976;19;20603;-57
2022/10/25 10:58:29;;;;;;;11.18;3.72;;;17.00;99.90;;;;;;7375855;19;20486;-57
2022/10/25 11:01:03;;;;;;;8.93;4.10;;;17.00;99.90;;;;;;7374763;19;20018;-57
2022/10/25 11:03:40;;;;;;;9.93;3.88;;;17.00;99.90;;;;;;7379515;19;20545;-57
2022/10/25 11:06:27;;;;;;;8.77;4.40;;;16.90;99.90;;;;;;7378938;19;20017;-57
2022/10/25 11:09:11;;;;;;;8.82;3.20;;;16.80;99.90;;;;;;7379810;19;20458;-57
2022/10/25 11:11:39;;;;;;;6.47;3.42;;;17.60;99.90;;;;;;7377112;19;20511;-57
2022/10/25 11:14:16;;;;;;;8.93;3.40;;;18.20;99.90;;;;;;7381628;19;20049;-57
2022/10/25 11:17:08;;;;;;;7.60;3.22;;;18.30;99.90;;;;;;7379353;19;20022;-57
2022/10/25 11:19:45;;;;;;;9.13;3.67;;;17.90;99.90;;;;;;7379011;19;20029;-57
2022/10/25 11:22:34;;;;;;;6.65;3.20;;;17.70;99.90;;;;;;7379736;19;20029;-57
2022/10/25 11:25:06;;;;;;;8.23;3.58;;;18.20;99.90;;;;;;7379671;19;20020;-47
2022/10/25 11:27:51;;;;;;;8.50;2.88;;;18.30;99.90;;;;;;7375775;19;20787;-47
2022/10/25 11:30:20;;;;;;;6.57;3.00;;;18.50;99.90;;;;;;7374690;19;20386;-50
2022/10/25 11:33:05;;;;;;;7.43;2.75;;;18.40;99.90;;;;;;7372559;19;20486;-47
2022/10/25 11:35:58;;;;;;;8.63;2.92;;;18.80;99.90;;;;;;7375297;19;20015;-52
2022/10/25 11:38:50;;;;;;;4.93;2.38;;;19.00;99.90;;;;;;7374380;19;20043;-51
2022/10/25 11:41:32;;;;;;;6.57;2.40;;;20.10;99.90;;;;;;7373611;19;20022;-49
2022/10/25 11:44:17;;;;;;;;;;;20.70;99.90;;;;;;7374083;19;20657;-53
2022/10/25 11:47:05;;;;;;;6.53;2.20;;;21.30;99.90;;;;;;7374883;19;19934;-52
2022/10/25 11:49:52;;;;;;;4.72;1.88;;;22.00;99.90;;;;;;7367790;19;20022;-47
2022/10/25 11:52:50;;;;;;;5.88;2.03;;;22.30;99.90;;;;;;7371909;19;20748;-52
2022/10/25 11:55:22;;;;;;;6.40;2.20;;;21.50;99.90;;;;;;7371427;19;20384;-52
2022/10/25 11:58:18;;;;;;;5.53;1.95;;;20.00;99.90;;;;;;7372360;19;20022;-53
2022/10/25 12:01:11;;;;;;;7.15;2.50;;;19.00;99.90;;;;;;7369884;19;20057;-53
2022/10/25 12:04:23;;;;;;;9.10;3.00;;;18.80;99.90;;;;;;7369295;19;20021;-49
2022/10/25 12:07:08;;;;;;;6.57;2.75;;;18.70;99.90;;;;;;7374532;19;20018;-50
2022/10/25 12:09:49;;;;;;;6.85;3.15;;;20.00;99.90;;;;;;7371562;19;20018;-52
2022/10/25 12:12:25;;;;;;;4.95;2.10;;;20.40;99.90;;;;;;7375676;19;20019;-54
2022/10/25 12:14:56;;;;;;;7.20;2.10;;;20.30;99.90;;;;;;7372709;19;20025;-53
2022/10/25 12:17:41;;;;;;;;;;;20.40;99.90;;;;;;7370461;19;20026;-48
2022/10/25 12:20:26;;;;;;;5.68;2.08;;;20.90;99.90;;;;;;7373168;19;19922;-51
2022/10/25 12:22:56;;;;;;;4.47;1.92;;;21.00;99.90;;;;;;7372787;19;20018;-61
2022/10/25 12:25:36;;;;;;;5.00;1.58;;;20.70;99.90;;;;;;7377647;19;20062;-61
2022/10/25 12:28:21;;;;;;;4.10;1.50;;;21.30;99.90;;;;;;7381411;19;20018;-61
2022/10/25 12:30:51;;;;;;;5.65;1.67;;;22.00;99.90;;;;;;7377523;19;20018;-61
2022/10/25 12:33:35;;;;;;;5.93;2.08;;;22.20;99.90;;;;;;7380110;19;20380;-61
2022/10/25 12:36:05;;;;;;;5.47;1.65;;;21.50;99.90;;;;;;7373356;19;20048;-55
2022/10/25 12:38:36;;;;;;;5.07;1.50;;;20.80;99.90;;;;;;7368325;19;20796;-54
2022/10/25 12:41:13;;;;;;;4.93;1.88;;;20.10;99.90;;;;;;7371236;19;20022;-54
2022/10/25 12:43:55;;;;;;;7.90;2.00;;;19.40;99.90;;;;;;7369259;19;20037;-54
2022/10/25 12:46:48;;;;;;;6.78;1.80;;;19.00;99.90;;;;;;7371439;19;20466;-53
2022/10/25 12:49:35;;;;;;;7.57;2.10;;;19.00;99.90;;;;;;7373319;19;20493;-51
2022/10/25 12:52:10;;;;;;;5.20;1.98;;;18.50;99.90;;;;;;7365825;19;20714;-52
2022/10/25 12:55:14;;;;;;;4.97;1.83;;;18.30;99.90;;;;;;7368703;19;20022;-50
2022/10/25 12:58:10;;;;;;;7.40;1.83;;;18.00;99.90;;;;;;7369714;19;20023;-47
2022/10/25 13:00:59;;;;;;;4.55;1.65;;;17.90;99.90;;;;;;7367931;19;20339;-53
2022/10/25 13:03:50;;;;;;;6.60;2.13;;;18.30;99.90;;;;;;7373295;19;20019;-52